sensor_id;sensor_type;location;lat;lon;timestamp;temperature;humidity
67974;DHT22;54756;51.140;6.952;2023-11-19T00:01:37;9.70;99.90
67974;DHT22;54756;51.140;6.952;2023-11-19T00:03:37;9.70;99.90
67974;DHT22;54756;51.140;6.952;2023-11-19T00:05:38;9.70;99.90
67974;DHT22;54756;51.140;6.952;2023-11-19T00:07:39;9.70;99.90
67974;DHT22;54756;51.140;6.952;2023-11-19T00:09:43;9.70;99.90
67974;DHT22;54756;51.140;6.952;2023-11-19T00:11:44;9.70;99.90
67974;DHT22;54756;51.140;6.952;2023-11-19T00:13:45;9.80;99.90
67974;DHT22;54756;51.140;6.952;2023-11-19T00:15:46;9.80;99.90
67974;DHT22;54756;51.140;6.952;2023-11-19T00:17:48;9.80;99.90
67974;DHT22;54756;51.140;6.952;2023-11-19T00:19:48;9.80;99.90
67974;DHT22;54756;51.140;6.952;2023-11-19T00:21:51;9.80;99.90
67974;DHT22;54756;51.140;6.952;2023-11-19T00:23:52;9.80;99.90
67974;DHT22;54756;51.140;6.952;2023-11-19T00:25:52;9.80;99.90
67974;DHT22;54756;51.140;6.952;2023-11-19T00:27:53;9.90;99.90
67974;DHT22;54756;51.140;6.952;2023-11-19T00:29:54;9.90;99.90
67974;DHT22;54756;51.140;6.952;2023-11-19T00:31:54;9.90;99.90
67974;DHT22;54756;51.140;6.952;2023-11-19T00:33:55;9.90;99.90
67974;DHT22;54756;51.140;6.952;2023-11-19T00:35:55;9.90;99.90
67974;DHT22;54756;51.140;6.952;2023-11-19T00:37:56;9.90;99.90
67974;DHT22;54756;51.140;6.952;2023-11-19T00:39:58;10.00;99.90
67974;DHT22;54756;51.140;6.952;2023-11-19T00:41:58;10.00;99.90
67974;DHT22;54756;51.140;6.952;2023-11-19T00:43:59;10.00;99.90
67974;DHT22;54756;51.140;6.952;2023-11-19T00:46:00;10.00;99.90
67974;DHT22;54756;51.140;6.952;2023-11-19T00:48:01;10.00;99.90
67974;DHT22;54756;51.140;6.952;2023-11-19T00:50:02;10.10;99.90
67974;DHT22;54756;51.140;6.952;2023-11-19T00:52:03;10.10;99.90
67974;DHT22;54756;51.140;6.952;2023-11-19T00:54:03;10.10;99.90
67974;DHT22;54756;51.140;6.952;2023-11-19T00:56:05;10.10;99.90
67974;DHT22;54756;51.140;6.952;2023-11-19T00:58:05;10.10;99.90
67974;DHT22;54756;51.140;6.952;2023-11-19T01:00:06;10.10;99.90
67974;DHT22;54756;51.140;6.952;2023-11-19T01:02:18;10.10;99.90
67974;DHT22;54756;51.140;6.952;2023-11-19T01:04:19;10.10;99.90
67974;DHT22;54756;51.140;6.952;2023-11-19T01:06:32;10.10;99.90
67974;DHT22;54756;51.140;6.952;2023-11-19T01:08:32;10.10;99.90
67974;DHT22;54756;51.140;6.952;2023-11-19T01:10:38;10.20;99.90
67974;DHT22;54756;51.140;6.952;2023-11-19T01:12:39;10.20;99.90
67974;DHT22;54756;51.140;6.952;2023-11-19T01:14:39;10.20;99.90
67974;DHT22;54756;51.140;6.952;2023-11-19T01:16:40;10.30;99.90
67974;DHT22;54756;51.140;6.952;2023-11-19T01:18:41;10.20;99.90
67974;DHT22;54756;51.140;6.952;2023-11-19T01:20:41;10.30;99.90
67974;DHT22;54756;51.140;6.952;2023-11-19T01:22:42;10.30;99.90
67974;DHT22;54756;51.140;6.952;2023-11-19T01:24:42;10.30;99.90
67974;DHT22;54756;51.140;6.952;2023-11-19T01:26:43;10.30;99.90
67974;DHT22;54756;51.140;6.952;2023-11-19T01:28:47;10.30;99.90
67974;DHT22;54756;51.140;6.952;2023-11-19T01:30:51;10.40;99.90
67974;DHT22;54756;51.140;6.952;2023-11-19T01:32:51;10.40;99.90
67974;DHT22;54756;51.140;6.952;2023-11-19T01:34:52;10.40;99.90
67974;DHT22;54756;51.140;6.952;2023-11-19T01:36:52;10.40;99.90
67974;DHT22;54756;51.140;6.952;2023-11-19T01:38:53;10.40;99.90
67974;DHT22;54756;51.140;6.952;2023-11-19T01:40:57;10.40;99.90
67974;DHT22;54756;51.140;6.952;2023-11-19T01:42:57;10.40;99.90
67974;DHT22;54756;51.140;6.952;2023-11-19T01:44:59;10.50;99.90
67974;DHT22;54756;51.140;6.952;2023-11-19T01:46:59;10.50;99.90
67974;DHT22;54756;51.140;6.952;2023-11-19T01:49:02;10.50;99.90
67974;DHT22;54756;51.140;6.952;2023-11-19T01:51:03;10.60;99.90
67974;DHT22;54756;51.140;6.952;2023-11-19T01:53:04;10.70;99.90
67974;DHT22;54756;51.140;6.952;2023-11-19T01:55:05;10.70;99.90
67974;DHT22;54756;51.140;6.952;2023-11-19T01:57:08;10.80;99.90
67974;DHT22;54756;51.140;6.952;2023-11-19T01:59:10;10.90;99.90
67974;DHT22;54756;51.140;6.952;2023-11-19T02:01:14;11.00;99.90
67974;DHT22;54756;51.140;6.952;2023-11-19T02:03:15;11.00;99.90
67974;DHT22;54756;51.140;6.952;2023-11-19T02:05:16;11.10;99.90
67974;DHT22;54756;51.140;6.952;2023-11-19T02:07:17;11.20;99.90
67974;DHT22;54756;51.140;6.952;2023-11-19T02:09:17;11.20;99.90
67974;DHT22;54756;51.140;6.952;2023-11-19T02:11:19;11.30;99.90
67974;DHT22;54756;51.140;6.952;2023-11-19T02:13:20;11.30;99.90
67974;DHT22;54756;51.140;6.952;2023-11-19T02:15:21;11.40;99.90
67974;DHT22;54756;51.140;6.952;2023-11-19T02:17:30;11.40;99.90
67974;DHT22;54756;51.140;6.952;2023-11-19T02:19:34;11.50;99.90
67974;DHT22;54756;51.140;6.952;2023-11-19T02:21:35;11.50;99.90
67974;DHT22;54756;51.140;6.952;2023-11-19T02:23:35;11.60;99.90
67974;DHT22;54756;51.140;6.952;2023-11-19T02:25:36;11.60;99.90
67974;DHT22;54756;51.140;6.952;2023-11-19T02:29:48;11.60;99.90
67974;DHT22;54756;51.140;6.952;2023-11-19T02:31:49;11.70;99.90
67974;DHT22;54756;51.140;6.952;2023-11-19T02:33:50;11.70;99.90
67974;DHT22;54756;51.140;6.952;2023-11-19T02:35:50;11.80;99.90
67974;DHT22;54756;51.140;6.952;2023-11-19T02:37:51;11.80;99.90
67974;DHT22;54756;51.140;6.952;2023-11-19T02:39:52;11.80;99.90
67974;DHT22;54756;51.140;6.952;2023-11-19T02:41:52;11.80;99.90
67974;DHT22;54756;51.140;6.952;2023-11-19T02:43:53;11.80;99.90
67974;DHT22;54756;51.140;6.952;2023-11-19T02:45:54;11.90;99.90
67974;DHT22;54756;51.140;6.952;2023-11-19T02:47:56;11.90;99.90
67974;DHT22;54756;51.140;6.952;2023-11-19T02:49:56;11.90;99.90
67974;DHT22;54756;51.140;6.952;2023-11-19T02:51:58;11.90;99.90
67974;DHT22;54756;51.140;6.952;2023-11-19T02:53:59;11.90;99.90
67974;DHT22;54756;51.140;6.952;2023-11-19T02:56:00;11.90;99.90
67974;DHT22;54756;51.140;6.952;2023-11-19T02:58:12;11.90;99.90
67974;DHT22;54756;51.140;6.952;2023-11-19T03:00:21;11.90;99.90
67974;DHT22;54756;51.140;6.952;2023-11-19T03:02:25;11.90;99.90
67974;DHT22;54756;51.140;6.952;2023-11-19T03:04:34;12.00;99.90
67974;DHT22;54756;51.140;6.952;2023-11-19T03:06:34;12.00;99.90
67974;DHT22;54756;51.140;6.952;2023-11-19T03:08:36;12.00;99.90
67974;DHT22;54756;51.140;6.952;2023-11-19T03:10:36;12.10;99.90
67974;DHT22;54756;51.140;6.952;2023-11-19T03:12:37;12.10;99.90
67974;DHT22;54756;51.140;6.952;2023-11-19T03:14:37;12.10;99.90
67974;DHT22;54756;51.140;6.952;2023-11-19T03:16:38;12.10;99.90
67974;DHT22;54756;51.140;6.952;2023-11-19T03:18:39;12.10;99.90
67974;DHT22;54756;51.140;6.952;2023-11-19T03:20:40;12.10;99.90
67974;DHT22;54756;51.140;6.952;2023-11-19T03:22:43;12.20;99.90
67974;DHT22;54756;51.140;6.952;2023-11-19T03:24:44;12.20;99.90
67974;DHT22;54756;51.140;6.952;2023-11-19T03:26:49;12.20;99.90
67974;DHT22;54756;51.140;6.952;2023-11-19T03:28:50;12.20;99.90
67974;DHT22;54756;51.140;6.952;2023-11-19T03:30:51;12.20;99.90
67974;DHT22;54756;51.140;6.952;2023-11-19T03:32:53;12.20;99.90
67974;DHT22;54756;51.140;6.952;2023-11-19T03:34:54;12.20;99.90
67974;DHT22;54756;51.140;6.952;2023-11-19T03:36:55;12.20;99.90
67974;DHT22;54756;51.140;6.952;2023-11-19T03:38:57;12.20;99.90
67974;DHT22;54756;51.140;6.952;2023-11-19T03:40:57;12.20;99.90
67974;DHT22;54756;51.140;6.952;2023-11-19T03:42:59;12.20;99.90
67974;DHT22;54756;51.140;6.952;2023-11-19T03:45:00;12.20;99.90
67974;DHT22;54756;51.140;6.952;2023-11-19T03:47:00;12.20;99.90
67974;DHT22;54756;51.140;6.952;2023-11-19T03:49:01;12.30;99.90
67974;DHT22;54756;51.140;6.952;2023-11-19T03:51:02;12.30;99.90
67974;DHT22;54756;51.140;6.952;2023-11-19T03:53:03;12.30;99.90
67974;DHT22;54756;51.140;6.952;2023-11-19T03:55:05;12.30;99.90
67974;DHT22;54756;51.140;6.952;2023-11-19T03:57:06;12.30;99.90
67974;DHT22;54756;51.140;6.952;2023-11-19T03:59:06;12.30;99.90
67974;DHT22;54756;51.140;6.952;2023-11-19T04:01:11;12.30;99.90
67974;DHT22;54756;51.140;6.952;2023-11-19T04:03:15;12.30;99.90
67974;DHT22;54756;51.140;6.952;2023-11-19T04:05:15;12.40;99.90
67974;DHT22;54756;51.140;6.952;2023-11-19T04:07:16;12.40;99.90
67974;DHT22;54756;51.140;6.952;2023-11-19T04:09:16;12.40;99.90
67974;DHT22;54756;51.140;6.952;2023-11-19T04:11:17;12.40;99.90
67974;DHT22;54756;51.140;6.952;2023-11-19T04:13:17;12.40;99.90
67974;DHT22;54756;51.140;6.952;2023-11-19T04:15:18;12.40;99.90
67974;DHT22;54756;51.140;6.952;2023-11-19T04:17:18;12.50;99.90
67974;DHT22;54756;51.140;6.952;2023-11-19T04:19:19;12.40;99.90
67974;DHT22;54756;51.140;6.952;2023-11-19T04:21:20;12.40;99.90
67974;DHT22;54756;51.140;6.952;2023-11-19T04:23:21;12.50;99.90
67974;DHT22;54756;51.140;6.952;2023-11-19T04:25:21;12.40;99.90
67974;DHT22;54756;51.140;6.952;2023-11-19T04:27:22;12.40;99.90
67974;DHT22;54756;51.140;6.952;2023-11-19T04:29:22;12.40;99.90
67974;DHT22;54756;51.140;6.952;2023-11-19T04:31:23;12.40;99.90
67974;DHT22;54756;51.140;6.952;2023-11-19T04:33:24;12.40;99.90
67974;DHT22;54756;51.140;6.952;2023-11-19T04:35:25;12.40;99.90
67974;DHT22;54756;51.140;6.952;2023-11-19T04:37:26;12.30;99.90
67974;DHT22;54756;51.140;6.952;2023-11-19T04:39:27;12.30;99.90
67974;DHT22;54756;51.140;6.952;2023-11-19T04:41:27;12.30;99.90
67974;DHT22;54756;51.140;6.952;2023-11-19T04:43:28;12.30;99.90
67974;DHT22;54756;51.140;6.952;2023-11-19T04:45:28;12.30;99.90
67974;DHT22;54756;51.140;6.952;2023-11-19T04:47:29;12.30;99.90
67974;DHT22;54756;51.140;6.952;2023-11-19T04:49:29;12.30;99.90
67974;DHT22;54756;51.140;6.952;2023-11-19T04:51:30;12.30;99.90
67974;DHT22;54756;51.140;6.952;2023-11-19T04:53:31;12.40;99.90
67974;DHT22;54756;51.140;6.952;2023-11-19T04:55:32;12.40;99.90
67974;DHT22;54756;51.140;6.952;2023-11-19T04:57:32;12.40;99.90
67974;DHT22;54756;51.140;6.952;2023-11-19T04:59:34;12.40;99.90
67974;DHT22;54756;51.140;6.952;2023-11-19T05:01:35;12.40;99.90
67974;DHT22;54756;51.140;6.952;2023-11-19T05:03:36;12.40;99.90
67974;DHT22;54756;51.140;6.952;2023-11-19T05:05:36;12.40;99.90
67974;DHT22;54756;51.140;6.952;2023-11-19T05:07:37;12.40;99.90
67974;DHT22;54756;51.140;6.952;2023-11-19T05:09:38;12.40;99.90
67974;DHT22;54756;51.140;6.952;2023-11-19T05:11:38;12.40;99.90
67974;DHT22;54756;51.140;6.952;2023-11-19T05:13:39;12.40;99.90
67974;DHT22;54756;51.140;6.952;2023-11-19T05:15:40;12.40;99.90
67974;DHT22;54756;51.140;6.952;2023-11-19T05:17:40;12.40;99.90
67974;DHT22;54756;51.140;6.952;2023-11-19T05:19:41;12.40;99.90
67974;DHT22;54756;51.140;6.952;2023-11-19T05:21:44;12.40;99.90
67974;DHT22;54756;51.140;6.952;2023-11-19T05:23:45;12.40;99.90
67974;DHT22;54756;51.140;6.952;2023-11-19T05:25:47;12.40;99.90
67974;DHT22;54756;51.140;6.952;2023-11-19T05:27:48;12.40;99.90
67974;DHT22;54756;51.140;6.952;2023-11-19T05:29:48;12.40;99.90
67974;DHT22;54756;51.140;6.952;2023-11-19T05:31:49;12.40;99.90
67974;DHT22;54756;51.140;6.952;2023-11-19T05:33:49;12.40;99.90
67974;DHT22;54756;51.140;6.952;2023-11-19T05:35:50;12.40;99.90
67974;DHT22;54756;51.140;6.952;2023-11-19T05:37:50;12.40;99.90
67974;DHT22;54756;51.140;6.952;2023-11-19T05:39:51;12.40;99.90
67974;DHT22;54756;51.140;6.952;2023-11-19T05:41:52;12.40;99.90
67974;DHT22;54756;51.140;6.952;2023-11-19T05:43:53;12.40;99.90
67974;DHT22;54756;51.140;6.952;2023-11-19T05:45:53;12.30;99.90
67974;DHT22;54756;51.140;6.952;2023-11-19T05:47:54;12.30;99.90
67974;DHT22;54756;51.140;6.952;2023-11-19T05:49:54;12.30;99.90
67974;DHT22;54756;51.140;6.952;2023-11-19T05:51:55;12.30;99.90
67974;DHT22;54756;51.140;6.952;2023-11-19T05:53:56;12.30;99.90
67974;DHT22;54756;51.140;6.952;2023-11-19T05:55:57;12.30;99.90
67974;DHT22;54756;51.140;6.952;2023-11-19T05:57:58;12.30;99.90
67974;DHT22;54756;51.140;6.952;2023-11-19T05:59:59;12.30;99.90
67974;DHT22;54756;51.140;6.952;2023-11-19T06:01:59;12.30;99.90
67974;DHT22;54756;51.140;6.952;2023-11-19T06:04:00;12.30;99.90
67974;DHT22;54756;51.140;6.952;2023-11-19T06:06:01;12.30;99.90
67974;DHT22;54756;51.140;6.952;2023-11-19T06:08:01;12.30;99.90
67974;DHT22;54756;51.140;6.952;2023-11-19T06:10:03;12.30;99.90
67974;DHT22;54756;51.140;6.952;2023-11-19T06:12:06;12.30;99.90
67974;DHT22;54756;51.140;6.952;2023-11-19T06:14:07;12.30;99.90
67974;DHT22;54756;51.140;6.952;2023-11-19T06:16:08;12.20;99.90
67974;DHT22;54756;51.140;6.952;2023-11-19T06:18:09;12.20;99.90
67974;DHT22;54756;51.140;6.952;2023-11-19T06:20:11;12.20;99.90
67974;DHT22;54756;51.140;6.952;2023-11-19T06:22:12;12.20;99.90
67974;DHT22;54756;51.140;6.952;2023-11-19T06:24:13;12.10;99.90
67974;DHT22;54756;51.140;6.952;2023-11-19T06:26:14;12.10;99.90
67974;DHT22;54756;51.140;6.952;2023-11-19T06:28:14;12.10;99.90
67974;DHT22;54756;51.140;6.952;2023-11-19T06:30:15;12.10;99.90
67974;DHT22;54756;51.140;6.952;2023-11-19T06:32:16;12.10;99.90
67974;DHT22;54756;51.140;6.952;2023-11-19T06:34:17;12.10;99.90
67974;DHT22;54756;51.140;6.952;2023-11-19T06:36:17;12.10;99.90
67974;DHT22;54756;51.140;6.952;2023-11-19T06:38:18;12.10;99.90
67974;DHT22;54756;51.140;6.952;2023-11-19T06:40:19;12.10;99.90
67974;DHT22;54756;51.140;6.952;2023-11-19T06:42:19;12.00;99.90
67974;DHT22;54756;51.140;6.952;2023-11-19T06:44:20;12.00;99.90
67974;DHT22;54756;51.140;6.952;2023-11-19T06:46:20;12.00;99.90
67974;DHT22;54756;51.140;6.952;2023-11-19T06:48:21;12.00;99.90
67974;DHT22;54756;51.140;6.952;2023-11-19T06:50:21;12.00;99.90
67974;DHT22;54756;51.140;6.952;2023-11-19T06:52:22;11.90;99.90
67974;DHT22;54756;51.140;6.952;2023-11-19T06:54:22;11.90;99.90
67974;DHT22;54756;51.140;6.952;2023-11-19T06:56:24;11.90;99.90
67974;DHT22;54756;51.140;6.952;2023-11-19T06:58:24;11.90;99.90
67974;DHT22;54756;51.140;6.952;2023-11-19T07:00:25;11.90;99.90
67974;DHT22;54756;51.140;6.952;2023-11-19T07:02:25;11.80;99.90
67974;DHT22;54756;51.140;6.952;2023-11-19T07:04:26;11.80;99.90
67974;DHT22;54756;51.140;6.952;2023-11-19T07:06:26;11.80;99.90
67974;DHT22;54756;51.140;6.952;2023-11-19T07:08:27;11.80;99.90
67974;DHT22;54756;51.140;6.952;2023-11-19T07:10:28;11.80;99.90
67974;DHT22;54756;51.140;6.952;2023-11-19T07:12:30;11.80;99.90
67974;DHT22;54756;51.140;6.952;2023-11-19T07:14:31;11.80;99.90
67974;DHT22;54756;51.140;6.952;2023-11-19T07:16:35;11.80;99.90
67974;DHT22;54756;51.140;6.952;2023-11-19T07:18:37;11.80;99.90
67974;DHT22;54756;51.140;6.952;2023-11-19T07:20:38;11.70;99.90
67974;DHT22;54756;51.140;6.952;2023-11-19T07:22:42;11.70;99.90
67974;DHT22;54756;51.140;6.952;2023-11-19T07:24:43;11.70;99.90
67974;DHT22;54756;51.140;6.952;2023-11-19T07:26:45;11.70;99.90
67974;DHT22;54756;51.140;6.952;2023-11-19T07:28:45;11.70;99.90
67974;DHT22;54756;51.140;6.952;2023-11-19T07:30:46;11.70;99.90
67974;DHT22;54756;51.140;6.952;2023-11-19T07:32:47;11.70;99.90
67974;DHT22;54756;51.140;6.952;2023-11-19T07:34:47;11.70;99.90
67974;DHT22;54756;51.140;6.952;2023-11-19T07:36:48;11.70;99.90
67974;DHT22;54756;51.140;6.952;2023-11-19T07:38:48;11.70;99.90
67974;DHT22;54756;51.140;6.952;2023-11-19T07:40:49;11.70;99.90
67974;DHT22;54756;51.140;6.952;2023-11-19T07:42:49;11.70;99.90
67974;DHT22;54756;51.140;6.952;2023-11-19T07:44:50;11.70;99.90
67974;DHT22;54756;51.140;6.952;2023-11-19T07:46:51;11.70;99.90
67974;DHT22;54756;51.140;6.952;2023-11-19T07:48:52;11.70;99.90
67974;DHT22;54756;51.140;6.952;2023-11-19T07:50:53;11.70;99.90
67974;DHT22;54756;51.140;6.952;2023-11-19T07:52:53;11.70;99.90
67974;DHT22;54756;51.140;6.952;2023-11-19T07:54:54;11.70;99.90
67974;DHT22;54756;51.140;6.952;2023-11-19T07:56:54;11.70;99.90
67974;DHT22;54756;51.140;6.952;2023-11-19T07:58:55;11.70;99.90
67974;DHT22;54756;51.140;6.952;2023-11-19T08:00:56;11.70;99.90
67974;DHT22;54756;51.140;6.952;2023-11-19T08:02:56;11.70;99.90
67974;DHT22;54756;51.140;6.952;2023-11-19T08:04:57;11.70;99.90
67974;DHT22;54756;51.140;6.952;2023-11-19T08:06:57;11.70;99.90
67974;DHT22;54756;51.140;6.952;2023-11-19T08:08:58;11.70;99.90
67974;DHT22;54756;51.140;6.952;2023-11-19T08:11:00;11.70;99.90
67974;DHT22;54756;51.140;6.952;2023-11-19T08:13:00;11.80;99.90
67974;DHT22;54756;51.140;6.952;2023-11-19T08:15:02;11.80;99.90
67974;DHT22;54756;51.140;6.952;2023-11-19T08:17:05;11.80;99.90
67974;DHT22;54756;51.140;6.952;2023-11-19T08:19:05;11.80;99.90
67974;DHT22;54756;51.140;6.952;2023-11-19T08:21:06;11.80;99.90
67974;DHT22;54756;51.140;6.952;2023-11-19T08:23:06;11.80;99.90
67974;DHT22;54756;51.140;6.952;2023-11-19T08:25:08;11.80;99.90
67974;DHT22;54756;51.140;6.952;2023-11-19T08:27:08;11.90;99.90
67974;DHT22;54756;51.140;6.952;2023-11-19T08:29:09;11.90;99.90
67974;DHT22;54756;51.140;6.952;2023-11-19T08:31:10;11.90;99.90
67974;DHT22;54756;51.140;6.952;2023-11-19T08:33:10;12.00;99.90
67974;DHT22;54756;51.140;6.952;2023-11-19T08:35:11;12.00;99.90
67974;DHT22;54756;51.140;6.952;2023-11-19T08:37:12;12.00;99.90
67974;DHT22;54756;51.140;6.952;2023-11-19T08:39:13;12.00;99.90
67974;DHT22;54756;51.140;6.952;2023-11-19T08:41:14;12.00;99.90
67974;DHT22;54756;51.140;6.952;2023-11-19T08:43:15;12.00;99.90
67974;DHT22;54756;51.140;6.952;2023-11-19T08:45:16;12.10;99.90
67974;DHT22;54756;51.140;6.952;2023-11-19T08:47:17;12.10;99.90
67974;DHT22;54756;51.140;6.952;2023-11-19T08:49:20;12.10;99.90
67974;DHT22;54756;51.140;6.952;2023-11-19T08:51:21;12.10;99.90
67974;DHT22;54756;51.140;6.952;2023-11-19T08:53:24;12.10;99.90
67974;DHT22;54756;51.140;6.952;2023-11-19T08:55:25;12.10;99.90
67974;DHT22;54756;51.140;6.952;2023-11-19T08:57:26;12.10;99.90
67974;DHT22;54756;51.140;6.952;2023-11-19T08:59:27;12.20;99.90
67974;DHT22;54756;51.140;6.952;2023-11-19T09:01:27;12.20;99.90
67974;DHT22;54756;51.140;6.952;2023-11-19T09:03:31;12.20;99.90
67974;DHT22;54756;51.140;6.952;2023-11-19T09:05:31;12.30;99.90
67974;DHT22;54756;51.140;6.952;2023-11-19T09:07:32;12.30;99.90
67974;DHT22;54756;51.140;6.952;2023-11-19T09:09:33;12.30;99.90
67974;DHT22;54756;51.140;6.952;2023-11-19T09:11:36;12.30;99.90
67974;DHT22;54756;51.140;6.952;2023-11-19T09:13:37;12.30;99.90
67974;DHT22;54756;51.140;6.952;2023-11-19T09:15:37;12.30;99.90
67974;DHT22;54756;51.140;6.952;2023-11-19T09:17:38;12.30;99.90
67974;DHT22;54756;51.140;6.952;2023-11-19T09:19:38;12.30;99.90
67974;DHT22;54756;51.140;6.952;2023-11-19T09:21:39;12.30;99.90
67974;DHT22;54756;51.140;6.952;2023-11-19T09:23:40;12.30;99.90
67974;DHT22;54756;51.140;6.952;2023-11-19T09:25:40;12.30;99.90
67974;DHT22;54756;51.140;6.952;2023-11-19T09:27:41;12.30;99.90
67974;DHT22;54756;51.140;6.952;2023-11-19T09:29:41;12.30;99.90
67974;DHT22;54756;51.140;6.952;2023-11-19T09:31:43;12.30;99.90
67974;DHT22;54756;51.140;6.952;2023-11-19T09:33:44;12.30;99.90
67974;DHT22;54756;51.140;6.952;2023-11-19T09:35:45;12.30;99.90
67974;DHT22;54756;51.140;6.952;2023-11-19T09:37:45;12.30;99.90
67974;DHT22;54756;51.140;6.952;2023-11-19T09:39:46;12.40;99.90
67974;DHT22;54756;51.140;6.952;2023-11-19T09:41:46;12.40;99.90
67974;DHT22;54756;51.140;6.952;2023-11-19T09:43:47;12.40;99.90
67974;DHT22;54756;51.140;6.952;2023-11-19T09:45:50;12.40;99.90
67974;DHT22;54756;51.140;6.952;2023-11-19T09:47:51;12.40;99.90
67974;DHT22;54756;51.140;6.952;2023-11-19T09:49:53;12.40;99.90
67974;DHT22;54756;51.140;6.952;2023-11-19T09:51:54;12.50;99.90
67974;DHT22;54756;51.140;6.952;2023-11-19T09:53:54;12.50;99.90
67974;DHT22;54756;51.140;6.952;2023-11-19T09:55:55;12.50;99.90
67974;DHT22;54756;51.140;6.952;2023-11-19T09:57:57;12.50;99.90
67974;DHT22;54756;51.140;6.952;2023-11-19T10:00:01;12.60;99.90
67974;DHT22;54756;51.140;6.952;2023-11-19T10:02:04;12.50;99.90
67974;DHT22;54756;51.140;6.952;2023-11-19T10:04:06;12.60;99.90
67974;DHT22;54756;51.140;6.952;2023-11-19T10:06:07;12.60;99.90
67974;DHT22;54756;51.140;6.952;2023-11-19T10:08:09;12.60;99.90
67974;DHT22;54756;51.140;6.952;2023-11-19T10:10:12;12.60;99.90
67974;DHT22;54756;51.140;6.952;2023-11-19T10:12:15;12.60;99.90
67974;DHT22;54756;51.140;6.952;2023-11-19T10:14:20;12.60;99.90
67974;DHT22;54756;51.140;6.952;2023-11-19T10:16:28;12.70;99.90
67974;DHT22;54756;51.140;6.952;2023-11-19T10:18:29;12.70;99.90
67974;DHT22;54756;51.140;6.952;2023-11-19T10:20:37;12.70;99.90
67974;DHT22;54756;51.140;6.952;2023-11-19T10:22:37;12.80;99.90
67974;DHT22;54756;51.140;6.952;2023-11-19T10:24:38;12.80;99.90
67974;DHT22;54756;51.140;6.952;2023-11-19T10:26:41;12.80;99.90
67974;DHT22;54756;51.140;6.952;2023-11-19T10:28:42;12.90;99.90
67974;DHT22;54756;51.140;6.952;2023-11-19T10:30:48;12.90;99.90
67974;DHT22;54756;51.140;6.952;2023-11-19T10:33:02;12.90;99.90
67974;DHT22;54756;51.140;6.952;2023-11-19T10:35:06;12.90;99.90
67974;DHT22;54756;51.140;6.952;2023-11-19T10:37:07;13.00;99.90
67974;DHT22;54756;51.140;6.952;2023-11-19T10:39:07;13.00;99.90
67974;DHT22;54756;51.140;6.952;2023-11-19T10:41:09;13.00;99.90
67974;DHT22;54756;51.140;6.952;2023-11-19T10:43:10;13.00;99.90
67974;DHT22;54756;51.140;6.952;2023-11-19T10:45:23;13.00;99.90
67974;DHT22;54756;51.140;6.952;2023-11-19T10:47:24;13.00;99.90
67974;DHT22;54756;51.140;6.952;2023-11-19T10:49:26;13.00;99.90
67974;DHT22;54756;51.140;6.952;2023-11-19T10:51:27;13.00;99.90
67974;DHT22;54756;51.140;6.952;2023-11-19T10:53:29;13.00;99.90
67974;DHT22;54756;51.140;6.952;2023-11-19T10:55:35;13.10;99.90
67974;DHT22;54756;51.140;6.952;2023-11-19T10:57:36;13.00;99.90
67974;DHT22;54756;51.140;6.952;2023-11-19T10:59:39;13.00;99.90
67974;DHT22;54756;51.140;6.952;2023-11-19T11:01:45;13.10;99.90
67974;DHT22;54756;51.140;6.952;2023-11-19T11:03:46;13.10;99.90
67974;DHT22;54756;51.140;6.952;2023-11-19T11:05:48;13.10;99.90
67974;DHT22;54756;51.140;6.952;2023-11-19T11:07:49;13.10;99.90
67974;DHT22;54756;51.140;6.952;2023-11-19T11:09:51;13.10;99.90
67974;DHT22;54756;51.140;6.952;2023-11-19T11:11:52;13.10;99.90
67974;DHT22;54756;51.140;6.952;2023-11-19T11:13:55;13.10;99.90
67974;DHT22;54756;51.140;6.952;2023-11-19T11:15:57;13.00;99.90
67974;DHT22;54756;51.140;6.952;2023-11-19T11:18:02;13.00;99.90
67974;DHT22;54756;51.140;6.952;2023-11-19T11:20:04;13.00;99.90
67974;DHT22;54756;51.140;6.952;2023-11-19T11:22:06;13.00;99.90
67974;DHT22;54756;51.140;6.952;2023-11-19T11:26:32;13.10;99.90
67974;DHT22;54756;51.140;6.952;2023-11-19T11:33:22;13.00;99.90
67974;DHT22;54756;51.140;6.952;2023-11-19T11:37:37;13.00;99.90
67974;DHT22;54756;51.140;6.952;2023-11-19T11:39:40;13.10;99.90
67974;DHT22;54756;51.140;6.952;2023-11-19T11:41:41;13.10;99.90
67974;DHT22;54756;51.140;6.952;2023-11-19T11:43:48;13.10;99.90
67974;DHT22;54756;51.140;6.952;2023-11-19T11:45:49;13.10;99.90
67974;DHT22;54756;51.140;6.952;2023-11-19T11:48:09;13.10;99.90
67974;DHT22;54756;51.140;6.952;2023-11-19T11:50:18;13.10;99.90
67974;DHT22;54756;51.140;6.952;2023-11-19T11:52:19;13.10;99.90
67974;DHT22;54756;51.140;6.952;2023-11-19T11:56:20;13.20;99.90
67974;DHT22;54756;51.140;6.952;2023-11-19T11:58:25;13.30;99.90
67974;DHT22;54756;51.140;6.952;2023-11-19T12:00:40;13.30;99.90
67974;DHT22;54756;51.140;6.952;2023-11-19T12:02:40;13.30;99.90
67974;DHT22;54756;51.140;6.952;2023-11-19T12:04:41;13.40;99.90
67974;DHT22;54756;51.140;6.952;2023-11-19T12:06:42;13.40;99.90
67974;DHT22;54756;51.140;6.952;2023-11-19T12:08:42;13.40;99.90
67974;DHT22;54756;51.140;6.952;2023-11-19T12:10:51;13.50;99.90
67974;DHT22;54756;51.140;6.952;2023-11-19T12:12:58;13.50;99.90
67974;DHT22;54756;51.140;6.952;2023-11-19T12:17:03;13.50;99.90
67974;DHT22;54756;51.140;6.952;2023-11-19T12:19:24;13.50;99.90
67974;DHT22;54756;51.140;6.952;2023-11-19T12:21:30;13.50;99.90
67974;DHT22;54756;51.140;6.952;2023-11-19T12:23:31;13.50;99.90
67974;DHT22;54756;51.140;6.952;2023-11-19T12:25:34;13.40;99.90
67974;DHT22;54756;51.140;6.952;2023-11-19T12:27:44;13.50;99.90
67974;DHT22;54756;51.140;6.952;2023-11-19T12:29:45;13.50;99.90
67974;DHT22;54756;51.140;6.952;2023-11-19T12:31:54;13.50;99.90
67974;DHT22;54756;51.140;6.952;2023-11-19T12:33:55;13.50;99.90
67974;DHT22;54756;51.140;6.952;2023-11-19T12:35:55;13.50;99.90
67974;DHT22;54756;51.140;6.952;2023-11-19T12:37:56;13.50;99.90
67974;DHT22;54756;51.140;6.952;2023-11-19T12:39:57;13.60;99.90
67974;DHT22;54756;51.140;6.952;2023-11-19T12:41:58;13.50;99.90
67974;DHT22;54756;51.140;6.952;2023-11-19T12:44:11;13.50;99.90
67974;DHT22;54756;51.140;6.952;2023-11-19T12:46:19;13.50;99.90
67974;DHT22;54756;51.140;6.952;2023-11-19T12:48:20;13.50;99.90
67974;DHT22;54756;51.140;6.952;2023-11-19T12:50:21;13.40;99.90
67974;DHT22;54756;51.140;6.952;2023-11-19T12:52:21;13.40;99.90
67974;DHT22;54756;51.140;6.952;2023-11-19T12:54:36;13.40;99.90
67974;DHT22;54756;51.140;6.952;2023-11-19T12:56:37;13.40;99.90
67974;DHT22;54756;51.140;6.952;2023-11-19T12:58:38;13.40;99.90
67974;DHT22;54756;51.140;6.952;2023-11-19T13:00:39;13.30;99.90
67974;DHT22;54756;51.140;6.952;2023-11-19T13:02:47;13.30;99.90
67974;DHT22;54756;51.140;6.952;2023-11-19T13:04:48;13.30;99.90
67974;DHT22;54756;51.140;6.952;2023-11-19T13:06:48;13.30;99.90